createdAt,value
2023-04-11T00:00:33.959Z,1.93
2023-04-11T00:03:02.791Z,1.90
2023-04-11T00:05:32.734Z,1.60
2023-04-11T00:07:59.094Z,1.90
2023-04-11T00:10:25.494Z,1.70
2023-04-11T00:12:55.647Z,1.90
2023-04-11T00:15:25.981Z,1.80
2023-04-11T00:17:54.083Z,1.83
2023-04-11T00:20:20.733Z,1.80
2023-04-11T00:22:47.256Z,1.57
2023-04-11T00:25:13.602Z,1.67
2023-04-11T00:27:39.961Z,1.93
2023-04-11T00:30:07.593Z,1.80
2023-04-11T00:32:33.930Z,1.47
2023-04-11T00:35:01.069Z,1.73
2023-04-11T00:37:27.446Z,1.60
2023-04-11T00:39:55.566Z,1.50
2023-04-11T00:42:22.095Z,2.00
2023-04-11T00:44:48.459Z,1.77
2023-04-11T00:47:14.881Z,1.63
2023-04-11T00:49:41.591Z,1.50
2023-04-11T00:52:12.056Z,1.70
2023-04-11T00:54:38.758Z,1.53
2023-04-11T00:57:06.401Z,1.73
2023-04-11T00:59:33.537Z,1.60
2023-04-11T01:02:00.962Z,1.67
2023-04-11T01:04:29.119Z,1.77
2023-04-11T01:07:03.238Z,1.90
2023-04-11T01:09:32.192Z,1.77
2023-04-11T01:12:00.653Z,1.73
2023-04-11T01:14:27.888Z,2.00
2023-04-11T01:16:55.673Z,1.80
2023-04-11T01:19:25.482Z,1.80
2023-04-11T01:21:54.543Z,1.87
2023-04-11T01:24:20.776Z,1.80
2023-04-11T01:26:47.014Z,1.97
2023-04-11T01:29:15.089Z,1.80
2023-04-11T01:31:42.501Z,1.73
2023-04-11T01:34:12.034Z,1.50
2023-04-11T01:36:38.447Z,1.70
2023-04-11T01:39:04.595Z,1.60
2023-04-11T01:41:33.359Z,1.70
2023-04-11T01:44:01.260Z,1.73
2023-04-11T01:46:27.508Z,1.63
2023-04-11T01:48:59.321Z,1.97
2023-04-11T01:51:26.358Z,1.83
2023-04-11T01:53:52.458Z,1.97
2023-04-11T01:56:18.585Z,1.83
2023-04-11T01:58:45.973Z,2.00
2023-04-11T02:01:15.254Z,1.83
2023-04-11T02:03:41.730Z,1.80
2023-04-11T02:06:08.086Z,2.00
2023-04-11T02:08:34.229Z,2.10
2023-04-11T02:11:00.382Z,2.30
2023-04-11T02:13:26.512Z,1.90
2023-04-11T02:15:52.794Z,2.20
2023-04-11T02:18:19.023Z,2.27
2023-04-11T02:20:45.168Z,2.63
2023-04-11T02:23:11.961Z,2.30
2023-04-11T02:25:39.094Z,2.67
2023-04-11T02:28:07.354Z,2.50
2023-04-11T02:30:34.524Z,2.53
2023-04-11T02:33:00.959Z,2.27
2023-04-11T02:35:27.116Z,2.00
2023-04-11T02:37:53.227Z,2.50
2023-04-11T02:40:19.563Z,2.53
2023-04-11T02:42:45.703Z,2.50
2023-04-11T02:45:11.936Z,2.43
2023-04-11T02:47:39.026Z,2.53
2023-04-11T02:50:07.705Z,2.27
2023-04-11T02:52:41.359Z,2.33
2023-04-11T02:55:09.580Z,2.20
2023-04-11T02:57:35.812Z,2.67
2023-04-11T03:00:06.527Z,1.90
2023-04-11T03:02:42.625Z,2.87
2023-04-11T03:05:09.737Z,2.57
2023-04-11T03:07:39.980Z,2.73
2023-04-11T03:10:08.393Z,3.13
2023-04-11T03:12:34.576Z,3.23
2023-04-11T03:15:04.007Z,3.07
2023-04-11T03:17:30.233Z,3.80
2023-04-11T03:19:56.670Z,3.00
2023-04-11T03:22:23.839Z,3.60
2023-04-11T03:24:50.268Z,3.03
2023-04-11T03:27:19.591Z,4.27
2023-04-11T03:29:48.763Z,3.43
2023-04-11T03:32:24.696Z,3.53
2023-04-11T03:34:50.842Z,4.30
2023-04-11T03:37:17.079Z,4.37
2023-04-11T03:39:43.272Z,4.07
2023-04-11T03:42:09.730Z,3.90
2023-04-11T03:44:36.474Z,3.80
2023-04-11T03:47:02.746Z,4.33
2023-04-11T03:49:36.114Z,4.40
2023-04-11T03:52:04.538Z,4.07
2023-04-11T03:54:31.070Z,4.03
2023-04-11T03:56:57.300Z,4.17
2023-04-11T03:59:24.894Z,4.20
2023-04-11T04:01:56.549Z,4.17
2023-04-11T04:04:23.627Z,4.10
2023-04-11T04:07:00.953Z,3.80
2023-04-11T04:09:34.628Z,3.90
2023-04-11T04:12:00.909Z,4.03
2023-04-11T04:14:40.024Z,4.33
2023-04-11T04:17:07.509Z,4.00
2023-04-11T04:19:33.647Z,4.43
2023-04-11T04:21:59.819Z,4.50
2023-04-11T04:24:31.526Z,4.40
2023-04-11T04:27:08.651Z,3.73
2023-04-11T04:29:47.078Z,4.73
2023-04-11T04:32:22.230Z,4.67
2023-04-11T04:34:55.446Z,4.20
2023-04-11T04:37:28.200Z,4.20
2023-04-11T04:40:15.972Z,4.13
2023-04-11T04:42:58.366Z,4.27
2023-04-11T04:45:36.047Z,4.00
2023-04-11T04:48:02.648Z,4.00
2023-04-11T04:50:28.829Z,4.27
2023-04-11T04:52:55.166Z,3.90
2023-04-11T04:55:21.311Z,4.00
2023-04-11T04:57:49.215Z,4.20
2023-04-11T05:00:16.196Z,4.30
2023-04-11T05:02:44.418Z,4.83
2023-04-11T05:05:13.192Z,3.87
2023-04-11T05:07:40.335Z,4.07
2023-04-11T05:10:07.346Z,4.47
2023-04-11T05:12:36.913Z,3.90
2023-04-11T05:15:10.698Z,4.00
2023-04-11T05:17:38.718Z,4.37
2023-04-11T05:20:08.144Z,3.90
2023-04-11T05:22:36.720Z,4.33
2023-04-11T05:25:03.221Z,4.67
2023-04-11T05:27:29.360Z,4.50
2023-04-11T05:29:55.984Z,4.67
2023-04-11T05:32:22.288Z,3.93
2023-04-11T05:34:57.256Z,4.37
2023-04-11T05:37:32.773Z,3.93
2023-04-11T05:39:59.342Z,3.53
2023-04-11T05:42:25.699Z,4.33
2023-04-11T05:44:51.825Z,4.60
2023-04-11T05:47:18.216Z,4.50
2023-04-11T05:49:44.378Z,4.27
2023-04-11T05:52:10.832Z,4.10
2023-04-11T05:54:37.082Z,4.03
2023-04-11T05:57:03.413Z,4.63
2023-04-11T05:59:33.889Z,4.70
2023-04-11T06:02:00.945Z,4.40
2023-04-11T06:04:27.211Z,4.37
2023-04-11T06:06:53.877Z,4.57
2023-04-11T06:09:20.057Z,5.53
2023-04-11T06:11:46.369Z,4.53
2023-04-11T06:14:12.525Z,4.77
2023-04-11T06:16:38.794Z,5.13
2023-04-11T06:19:05.158Z,7.13
2023-04-11T06:21:34.169Z,6.10
2023-04-11T06:24:04.625Z,5.43
2023-04-11T06:26:30.973Z,4.80
2023-04-11T06:28:57.073Z,4.67
2023-04-11T06:31:23.257Z,4.80
2023-04-11T06:33:49.451Z,4.83
2023-04-11T06:36:15.654Z,5.80
2023-04-11T06:38:42.724Z,5.10
2023-04-11T06:41:09.038Z,5.87
2023-04-11T06:43:35.301Z,5.10
2023-04-11T06:46:01.421Z,4.50
2023-04-11T06:48:27.541Z,4.67
2023-04-11T06:50:54.078Z,4.60
2023-04-11T06:53:20.794Z,4.77
2023-04-11T06:55:50.074Z,4.80
2023-04-11T06:58:16.549Z,4.80
2023-04-11T07:00:43.120Z,4.90
2023-04-11T07:03:09.615Z,5.73
2023-04-11T07:05:38.188Z,7.17
2023-04-11T07:08:05.537Z,6.20
2023-04-11T07:10:31.920Z,5.63
2023-04-11T07:12:58.111Z,5.43
2023-04-11T07:15:24.265Z,4.40
2023-04-11T07:17:52.618Z,4.97
2023-04-11T07:20:19.093Z,4.97
2023-04-11T07:22:45.255Z,4.23
2023-04-11T07:25:11.766Z,3.93
2023-04-11T07:27:38.113Z,4.97
2023-04-11T07:30:04.908Z,4.30
2023-04-11T07:32:31.046Z,3.93
2023-04-11T07:34:57.537Z,4.97
2023-04-11T07:37:23.888Z,3.80
2023-04-11T07:39:51.440Z,4.60
2023-04-11T07:42:17.629Z,4.10
2023-04-11T07:44:43.752Z,4.30
2023-04-11T07:47:09.935Z,5.10
2023-04-11T07:49:36.031Z,4.70
2023-04-11T07:52:02.393Z,4.50
2023-04-11T07:54:29.590Z,4.93
2023-04-11T07:56:56.322Z,4.10
2023-04-11T07:59:22.461Z,4.43
2023-04-11T08:01:57.263Z,3.67
2023-04-11T08:04:23.562Z,4.53
2023-04-11T08:06:49.827Z,4.20
2023-04-11T08:09:16.141Z,3.90
2023-04-11T08:11:42.639Z,4.33
2023-04-11T08:14:08.811Z,3.83
2023-04-11T08:16:35.540Z,3.77
2023-04-11T08:19:01.717Z,3.77
2023-04-11T08:21:27.878Z,4.13
2023-04-11T08:23:54.377Z,4.40
2023-04-11T08:26:20.698Z,4.13
2023-04-11T08:28:46.803Z,3.30
2023-04-11T08:31:13.663Z,4.07
2023-04-11T08:33:40.256Z,3.33
2023-04-11T08:36:10.450Z,3.93
2023-04-11T08:38:38.836Z,3.30
2023-04-11T08:41:05.822Z,3.40
2023-04-11T08:43:37.185Z,3.03
2023-04-11T08:46:04.465Z,2.40
2023-04-11T08:48:31.492Z,2.43
2023-04-11T08:50:58.119Z,3.10
2023-04-11T08:53:26.696Z,3.50
2023-04-11T08:55:52.883Z,3.03
2023-04-11T08:58:19.612Z,3.13
2023-04-11T09:00:46.146Z,3.00
2023-04-11T09:03:15.682Z,2.50
2023-04-11T09:05:45.853Z,3.30
2023-04-11T09:08:15.486Z,2.63
2023-04-11T09:10:44.862Z,3.07
2023-04-11T09:13:25.810Z,3.20
2023-04-11T09:16:09.198Z,3.13
2023-04-11T09:18:40.989Z,3.10
2023-04-11T09:21:13.805Z,3.03
2023-04-11T09:23:40.696Z,3.10
2023-04-11T09:26:09.823Z,2.93
2023-04-11T09:28:42.140Z,3.33
2023-04-11T09:31:09.754Z,3.33
2023-04-11T09:33:35.894Z,4.27
2023-04-11T09:36:19.255Z,3.60
2023-04-11T09:38:45.404Z,3.23
2023-04-11T09:41:11.699Z,3.30
2023-04-11T09:43:53.031Z,3.17
2023-04-11T09:46:20.447Z,2.83
2023-04-11T09:48:52.404Z,2.93
2023-04-11T09:51:28.169Z,3.00
2023-04-11T09:54:02.834Z,2.80
2023-04-11T09:56:31.146Z,3.27
2023-04-11T09:59:00.304Z,3.30
2023-04-11T10:01:26.602Z,3.20
2023-04-11T10:03:53.225Z,2.97
2023-04-11T10:06:37.782Z,2.83
2023-04-11T10:09:13.433Z,2.73
2023-04-11T10:11:43.982Z,2.30
2023-04-11T10:14:37.989Z,3.00
2023-04-11T10:17:22.049Z,2.30
2023-04-11T10:19:58.822Z,2.63
2023-04-11T10:22:40.330Z,2.53
2023-04-11T10:25:20.311Z,2.40
2023-04-11T10:27:56.545Z,2.47
2023-04-11T10:30:43.148Z,2.50
2023-04-11T10:33:12.601Z,2.50
2023-04-11T10:36:11.837Z,2.60
2023-04-11T10:38:42.838Z,2.43
2023-04-11T10:41:22.394Z,2.20
2023-04-11T10:43:49.306Z,2.67
2023-04-11T10:46:23.464Z,2.17
2023-04-11T10:49:05.434Z,2.80
2023-04-11T10:51:33.375Z,2.60
2023-04-11T10:54:00.264Z,2.20
2023-04-11T10:56:49.913Z,2.43
2023-04-11T10:59:31.673Z,2.30
2023-04-11T11:02:00.616Z,2.00
2023-04-11T11:04:40.198Z,2.00
2023-04-11T11:07:12.784Z,1.77
2023-04-11T11:09:39.243Z,1.87
2023-04-11T11:12:16.010Z,1.70
2023-04-11T11:14:45.301Z,2.27
2023-04-11T11:17:14.108Z,2.30
2023-04-11T11:19:44.880Z,2.70
2023-04-11T11:22:25.966Z,2.20
2023-04-11T11:24:52.584Z,2.00
2023-04-11T11:27:24.079Z,2.40
2023-04-11T11:29:51.690Z,2.17
2023-04-11T11:32:29.444Z,3.23
2023-04-11T11:34:56.692Z,2.17
2023-04-11T11:37:23.386Z,2.40
2023-04-11T11:39:50.237Z,2.27
2023-04-11T11:42:17.277Z,2.53
2023-04-11T11:44:43.505Z,2.57
2023-04-11T11:47:12.253Z,2.50
2023-04-11T11:49:50.202Z,2.30
2023-04-11T11:52:38.957Z,3.17
2023-04-11T11:55:29.246Z,2.63
2023-04-11T11:58:01.329Z,2.70
2023-04-11T12:00:37.171Z,2.60
2023-04-11T12:03:05.049Z,2.50
2023-04-11T12:05:33.564Z,2.40
2023-04-11T12:08:03.605Z,2.80
2023-04-11T12:10:47.811Z,2.90
2023-04-11T12:13:19.995Z,2.47
2023-04-11T12:15:57.440Z,2.07
2023-04-11T12:18:26.737Z,2.00
2023-04-11T12:20:53.750Z,1.80
2023-04-11T12:23:20.531Z,2.10
2023-04-11T12:25:46.740Z,2.00
2023-04-11T12:28:13.225Z,1.83
2023-04-11T12:30:39.388Z,2.60
2023-04-11T12:33:05.717Z,2.00
2023-04-11T12:35:32.333Z,2.03
2023-04-11T12:37:58.604Z,4.97
2023-04-11T12:40:27.545Z,2.53
2023-04-11T12:42:57.185Z,2.00
2023-04-11T12:45:24.350Z,1.93
2023-04-11T12:47:51.235Z,1.87
2023-04-11T12:50:17.512Z,1.80
2023-04-11T12:52:44.208Z,2.30
2023-04-11T12:55:12.662Z,2.00
2023-04-11T12:57:39.553Z,2.23
2023-04-11T13:00:07.228Z,1.97
2023-04-11T13:02:42.157Z,1.80
2023-04-11T13:05:11.132Z,2.30
2023-04-11T13:07:37.441Z,2.17
2023-04-11T13:10:07.376Z,1.90
2023-04-11T13:12:38.850Z,1.90
2023-04-11T13:15:07.185Z,1.87
2023-04-11T13:17:33.706Z,2.07
2023-04-11T13:19:59.898Z,1.93
2023-04-11T13:22:26.523Z,1.83
2023-04-11T13:24:52.919Z,2.17
2023-04-11T13:27:19.078Z,2.33
2023-04-11T13:29:45.559Z,1.47
2023-04-11T13:32:11.703Z,2.00
2023-04-11T13:34:38.058Z,2.30
2023-04-11T13:37:04.262Z,2.17
2023-04-11T13:39:30.441Z,2.17
2023-04-11T13:41:56.590Z,1.80
2023-04-11T13:44:22.735Z,1.70
2023-04-11T13:46:48.896Z,1.97
2023-04-11T13:49:15.263Z,2.00
2023-04-11T13:51:41.445Z,2.00
2023-04-11T13:54:07.857Z,1.90
2023-04-11T13:56:34.305Z,1.90
2023-04-11T13:59:02.184Z,1.90
2023-04-11T14:01:28.645Z,2.03
2023-04-11T14:03:54.937Z,1.67
2023-04-11T14:06:21.644Z,1.67
2023-04-11T14:08:49.247Z,1.60
2023-04-11T14:11:16.408Z,2.00
2023-04-11T14:13:42.579Z,1.93
2023-04-11T14:16:09.677Z,2.20
2023-04-11T14:18:36.112Z,2.10
2023-04-11T14:21:06.490Z,1.83
2023-04-11T14:23:32.708Z,2.53
2023-04-11T14:25:59.245Z,1.77
2023-04-11T14:28:26.796Z,1.80
2023-04-11T14:30:54.637Z,1.83
2023-04-11T14:33:20.953Z,2.20
2023-04-11T14:35:47.333Z,1.63
2023-04-11T14:38:14.946Z,1.70
2023-04-11T14:40:41.747Z,1.70
2023-04-11T14:43:10.383Z,1.90
2023-04-11T14:45:36.795Z,1.63
2023-04-11T14:48:03.504Z,1.83
2023-04-11T14:50:30.084Z,1.70
2023-04-11T14:52:56.401Z,2.03
2023-04-11T14:55:22.728Z,1.57
2023-04-11T14:57:53.796Z,2.00
2023-04-11T15:00:21.620Z,1.90
2023-04-11T15:02:53.579Z,1.87
2023-04-11T15:05:21.917Z,2.00
2023-04-11T15:07:50.859Z,1.80
2023-04-11T15:10:21.018Z,2.00
2023-04-11T15:12:47.580Z,2.07
2023-04-11T15:15:15.278Z,1.70
2023-04-11T15:17:45.813Z,2.10
2023-04-11T15:20:15.732Z,1.73
2023-04-11T15:22:44.952Z,1.60
2023-04-11T15:25:14.598Z,1.57
2023-04-11T15:27:42.233Z,1.80
2023-04-11T15:30:09.639Z,1.40
2023-04-11T15:32:40.877Z,1.80
2023-04-11T15:35:07.660Z,1.73
2023-04-11T15:37:33.752Z,1.63
2023-04-11T15:40:00.492Z,1.90
2023-04-11T15:42:26.641Z,1.40
2023-04-11T15:44:52.803Z,1.70
2023-04-11T15:47:19.023Z,1.70
2023-04-11T15:49:45.440Z,1.13
2023-04-11T15:52:11.884Z,1.80
2023-04-11T15:54:43.556Z,1.67
2023-04-11T15:57:10.046Z,1.90
2023-04-11T15:59:37.270Z,1.90
2023-04-11T16:02:04.035Z,1.90
2023-04-11T16:04:30.533Z,2.03
2023-04-11T16:06:57.814Z,1.80
2023-04-11T16:09:23.934Z,1.70
2023-04-11T16:11:50.058Z,2.00
2023-04-11T16:14:16.391Z,2.23
2023-04-11T16:16:45.852Z,2.23
2023-04-11T16:19:12.064Z,1.87
2023-04-11T16:21:38.295Z,1.90
2023-04-11T16:24:04.613Z,1.80
2023-04-11T16:26:31.559Z,2.00
2023-04-11T16:28:57.778Z,2.10
2023-04-11T16:31:24.270Z,1.83
2023-04-11T16:33:54.356Z,2.20
2023-04-11T16:36:22.297Z,1.90
2023-04-11T16:38:48.995Z,2.40
2023-04-11T16:41:16.545Z,2.00
2023-04-11T16:43:43.359Z,1.77
2023-04-11T16:46:13.880Z,2.00
2023-04-11T16:48:41.915Z,1.57
2023-04-11T16:51:10.455Z,2.00
2023-04-11T16:53:37.694Z,1.87
2023-04-11T16:56:04.098Z,1.87
2023-04-11T16:58:31.333Z,1.93
2023-04-11T17:00:59.301Z,2.00
2023-04-11T17:03:28.701Z,1.87
2023-04-11T17:05:55.227Z,1.70
2023-04-11T17:08:21.585Z,2.03
2023-04-11T17:10:49.759Z,1.80
2023-04-11T17:13:17.743Z,1.80
2023-04-11T17:15:44.913Z,2.00
2023-04-11T17:18:14.639Z,2.00
2023-04-11T17:20:42.801Z,2.20
2023-04-11T17:23:09.353Z,2.17
2023-04-11T17:25:35.759Z,1.97
2023-04-11T17:28:02.232Z,2.00
2023-04-11T17:30:29.494Z,1.90
2023-04-11T17:32:55.890Z,2.10
2023-04-11T17:35:22.574Z,1.90
2023-04-11T17:37:49.745Z,1.90
2023-04-11T17:40:21.281Z,1.80
2023-04-11T17:42:47.575Z,2.60
2023-04-11T17:45:17.653Z,2.20
2023-04-11T17:47:45.893Z,2.27
2023-04-11T17:50:13.753Z,2.70
2023-04-11T17:52:43.254Z,2.30
2023-04-11T17:55:13.759Z,2.00
2023-04-11T17:57:40.359Z,2.10
2023-04-11T18:00:25.675Z,1.80
2023-04-11T18:02:59.284Z,2.10
2023-04-11T18:05:32.792Z,2.07
2023-04-11T18:08:00.226Z,1.93
2023-04-11T18:10:29.945Z,2.37
2023-04-11T18:12:57.807Z,1.77
2023-04-11T18:15:25.602Z,2.00
2023-04-11T18:17:52.639Z,2.00
2023-04-11T18:20:19.123Z,2.07
2023-04-11T18:22:48.518Z,1.90
2023-04-11T18:25:14.766Z,2.00
2023-04-11T18:27:41.157Z,2.30
2023-04-11T18:30:13.669Z,2.23
2023-04-11T18:32:46.863Z,2.30
2023-04-11T18:35:16.320Z,5.87
2023-04-11T18:37:42.642Z,3.17
2023-04-11T18:40:11.275Z,2.40
2023-04-11T18:42:51.577Z,2.23
2023-04-11T18:45:21.016Z,2.43
2023-04-11T18:47:47.588Z,2.47
2023-04-11T18:50:15.136Z,2.70
2023-04-11T18:52:41.654Z,2.80
2023-04-11T18:55:09.323Z,2.70
2023-04-11T18:57:37.746Z,3.10
2023-04-11T19:00:16.796Z,2.77
2023-04-11T19:02:45.044Z,2.67
2023-04-11T19:05:13.299Z,3.37
2023-04-11T19:07:44.665Z,2.90
2023-04-11T19:10:11.916Z,3.17
2023-04-11T19:12:40.173Z,3.37
2023-04-11T19:15:08.380Z,2.63
2023-04-11T19:17:37.398Z,2.60
2023-04-11T19:20:06.274Z,2.83
2023-04-11T19:22:35.022Z,3.03
2023-04-11T19:25:01.184Z,2.90
2023-04-11T19:27:27.604Z,2.60
2023-04-11T19:29:53.990Z,2.80
2023-04-11T19:32:20.137Z,2.80
2023-04-11T19:34:46.981Z,2.60
2023-04-11T19:37:15.557Z,3.00
2023-04-11T19:39:41.790Z,3.00
2023-04-11T19:42:09.478Z,3.33
2023-04-11T19:44:35.779Z,3.30
2023-04-11T19:47:02.155Z,3.47
2023-04-11T19:49:28.315Z,3.60
2023-04-11T19:51:54.503Z,4.30
2023-04-11T19:54:20.654Z,3.60
2023-04-11T19:56:48.744Z,3.57
2023-04-11T19:59:15.411Z,4.20
2023-04-11T20:01:41.890Z,3.57
2023-04-11T20:04:08.937Z,4.30
2023-04-11T20:06:35.380Z,3.90
2023-04-11T20:09:02.078Z,3.90
2023-04-11T20:11:29.394Z,3.90
2023-04-11T20:13:56.038Z,3.90
2023-04-11T20:16:24.377Z,3.97
2023-04-11T20:18:51.584Z,3.97
2023-04-11T20:21:17.860Z,4.60
2023-04-11T20:23:44.039Z,4.30
2023-04-11T20:26:10.166Z,4.13
2023-04-11T20:28:37.021Z,4.30
2023-04-11T20:31:03.972Z,4.23
2023-04-11T20:33:30.563Z,4.30
2023-04-11T20:35:57.088Z,4.20
2023-04-11T20:38:23.297Z,4.10
2023-04-11T20:40:49.715Z,3.53
2023-04-11T20:43:16.803Z,4.00
2023-04-11T20:45:44.885Z,3.63
2023-04-11T20:48:12.196Z,4.10
2023-04-11T20:50:40.187Z,3.77
2023-04-11T20:53:06.367Z,4.03
2023-04-11T20:55:32.763Z,4.30
2023-04-11T20:57:58.940Z,3.90
2023-04-11T21:00:25.348Z,3.57
2023-04-11T21:02:52.010Z,4.50
2023-04-11T21:05:24.008Z,4.20
2023-04-11T21:07:53.342Z,3.70
2023-04-11T21:10:20.083Z,4.10
2023-04-11T21:12:50.502Z,3.80
2023-04-11T21:15:19.031Z,3.60
2023-04-11T21:17:45.498Z,3.50
2023-04-11T21:20:17.002Z,3.57
2023-04-11T21:22:52.173Z,3.47
2023-04-11T21:25:19.244Z,3.57
2023-04-11T21:27:46.556Z,3.37
2023-04-11T21:30:14.224Z,3.60
2023-04-11T21:32:40.599Z,3.53
2023-04-11T21:35:10.030Z,3.43
2023-04-11T21:37:36.456Z,3.10
2023-04-11T21:40:03.300Z,3.67
2023-04-11T21:42:30.507Z,3.93
2023-04-11T21:44:56.747Z,3.30
2023-04-11T21:47:22.960Z,3.23
2023-04-11T21:49:49.414Z,3.90
2023-04-11T21:52:15.874Z,3.80
2023-04-11T21:54:43.262Z,3.60
2023-04-11T21:57:10.187Z,3.47
2023-04-11T21:59:38.326Z,3.80
2023-04-11T22:02:05.015Z,3.60
2023-04-11T22:04:33.748Z,3.80
2023-04-11T22:07:01.975Z,3.40
2023-04-11T22:09:28.121Z,3.40
2023-04-11T22:11:54.254Z,3.93
2023-04-11T22:14:20.647Z,4.30
2023-04-11T22:16:50.288Z,3.60
2023-04-11T22:19:18.252Z,4.20
2023-04-11T22:21:49.844Z,3.17
2023-04-11T22:24:16.073Z,3.83
2023-04-11T22:26:48.204Z,3.60
2023-04-11T22:29:18.142Z,3.90
2023-04-11T22:31:46.990Z,3.60
2023-04-11T22:34:13.367Z,3.83
2023-04-11T22:36:41.058Z,4.50
2023-04-11T22:39:08.903Z,4.43
2023-04-11T22:41:37.752Z,4.60
2023-04-11T22:44:07.910Z,4.40
2023-04-11T22:46:38.010Z,3.90
2023-04-11T22:49:11.312Z,4.03
2023-04-11T22:51:37.807Z,5.30
2023-04-11T22:54:04.479Z,5.77
2023-04-11T22:56:30.608Z,6.40
2023-04-11T22:58:56.778Z,7.10
2023-04-11T23:01:22.942Z,8.67
2023-04-11T23:03:49.199Z,7.30
2023-04-11T23:06:15.952Z,7.93
2023-04-11T23:08:42.318Z,7.63
2023-04-11T23:11:08.468Z,7.40
2023-04-11T23:13:34.595Z,7.27
2023-04-11T23:16:00.707Z,6.63
2023-04-11T23:18:27.121Z,6.10
2023-04-11T23:20:53.575Z,5.07
2023-04-11T23:23:19.852Z,6.10
2023-04-11T23:25:46.277Z,6.53
2023-04-11T23:28:12.428Z,6.27
2023-04-11T23:30:38.578Z,4.60
2023-04-11T23:33:07.884Z,4.13
2023-04-11T23:35:35.283Z,3.60
2023-04-11T23:38:02.857Z,3.80
2023-04-11T23:40:29.780Z,3.70
2023-04-11T23:42:57.169Z,3.40
2023-04-11T23:45:23.777Z,3.43
2023-04-11T23:47:50.881Z,3.07
2023-04-11T23:50:17.610Z,3.00
2023-04-11T23:52:44.466Z,3.47
2023-04-11T23:55:12.537Z,3.47
2023-04-11T23:57:38.909Z,3.60
